sensor_id;sensor_type;location;lat;lon;timestamp;P1;durP1;ratioP1;P2;durP2;ratioP2
31368;SDS011;18004;48.416;10.066;2022-12-18T00:02:04;4.97;;;4.55;;
31368;SDS011;18004;48.416;10.066;2022-12-18T00:04:30;36.30;;;19.88;;
31368;SDS011;18004;48.416;10.066;2022-12-18T00:06:56;27.73;;;13.45;;
31368;SDS011;18004;48.416;10.066;2022-12-18T00:09:21;24.23;;;13.00;;
31368;SDS011;18004;48.416;10.066;2022-12-18T00:11:50;28.42;;;12.60;;
31368;SDS011;18004;48.416;10.066;2022-12-18T00:14:16;44.38;;;20.20;;
31368;SDS011;18004;48.416;10.066;2022-12-18T00:16:45;35.08;;;17.58;;
31368;SDS011;18004;48.416;10.066;2022-12-18T00:19:11;25.63;;;13.07;;
31368;SDS011;18004;48.416;10.066;2022-12-18T00:21:41;8.23;;;5.50;;
31368;SDS011;18004;48.416;10.066;2022-12-18T00:24:08;38.72;;;16.25;;
31368;SDS011;18004;48.416;10.066;2022-12-18T00:26:35;41.35;;;13.30;;
31368;SDS011;18004;48.416;10.066;2022-12-18T00:29:04;36.45;;;16.98;;
31368;SDS011;18004;48.416;10.066;2022-12-18T00:31:33;16.95;;;8.75;;
31368;SDS011;18004;48.416;10.066;2022-12-18T00:33:59;21.60;;;8.85;;
31368;SDS011;18004;48.416;10.066;2022-12-18T00:36:26;48.55;;;20.10;;
31368;SDS011;18004;48.416;10.066;2022-12-18T00:38:54;32.80;;;14.27;;
31368;SDS011;18004;48.416;10.066;2022-12-18T00:41:21;32.85;;;16.63;;
31368;SDS011;18004;48.416;10.066;2022-12-18T00:44:05;35.58;;;17.92;;
31368;SDS011;18004;48.416;10.066;2022-12-18T00:46:32;20.52;;;7.82;;
31368;SDS011;18004;48.416;10.066;2022-12-18T00:48:58;33.30;;;17.23;;
31368;SDS011;18004;48.416;10.066;2022-12-18T00:51:24;40.42;;;17.98;;
31368;SDS011;18004;48.416;10.066;2022-12-18T00:53:49;34.42;;;13.50;;
31368;SDS011;18004;48.416;10.066;2022-12-18T00:56:16;23.42;;;12.50;;
31368;SDS011;18004;48.416;10.066;2022-12-18T00:58:41;40.60;;;15.02;;
31368;SDS011;18004;48.416;10.066;2022-12-18T01:01:07;16.80;;;7.97;;
31368;SDS011;18004;48.416;10.066;2022-12-18T01:03:34;37.50;;;12.68;;
31368;SDS011;18004;48.416;10.066;2022-12-18T01:06:04;37.60;;;18.35;;
31368;SDS011;18004;48.416;10.066;2022-12-18T01:08:34;26.33;;;11.93;;
31368;SDS011;18004;48.416;10.066;2022-12-18T01:11:06;30.70;;;16.08;;
31368;SDS011;18004;48.416;10.066;2022-12-18T01:13:37;33.58;;;15.73;;
31368;SDS011;18004;48.416;10.066;2022-12-18T01:16:04;35.38;;;18.48;;
31368;SDS011;18004;48.416;10.066;2022-12-18T01:18:30;43.15;;;19.00;;
31368;SDS011;18004;48.416;10.066;2022-12-18T01:20:56;9.68;;;5.47;;
31368;SDS011;18004;48.416;10.066;2022-12-18T01:23:22;24.38;;;16.05;;
31368;SDS011;18004;48.416;10.066;2022-12-18T01:25:48;40.53;;;22.25;;
31368;SDS011;18004;48.416;10.066;2022-12-18T01:28:13;10.15;;;7.15;;
31368;SDS011;18004;48.416;10.066;2022-12-18T01:30:39;17.77;;;8.15;;
31368;SDS011;18004;48.416;10.066;2022-12-18T01:33:05;29.42;;;14.52;;
31368;SDS011;18004;48.416;10.066;2022-12-18T01:35:31;49.80;;;19.45;;
31368;SDS011;18004;48.416;10.066;2022-12-18T01:37:57;22.70;;;10.00;;
31368;SDS011;18004;48.416;10.066;2022-12-18T01:40:22;54.47;;;19.73;;
31368;SDS011;18004;48.416;10.066;2022-12-18T01:42:52;44.55;;;18.60;;
31368;SDS011;18004;48.416;10.066;2022-12-18T01:50:33;39.78;;;16.30;;
31368;SDS011;18004;48.416;10.066;2022-12-18T01:53:10;52.22;;;20.23;;
31368;SDS011;18004;48.416;10.066;2022-12-18T01:55:51;38.72;;;15.32;;
31368;SDS011;18004;48.416;10.066;2022-12-18T01:58:19;55.00;;;20.83;;
31368;SDS011;18004;48.416;10.066;2022-12-18T02:00:48;21.40;;;6.13;;
31368;SDS011;18004;48.416;10.066;2022-12-18T02:03:14;20.20;;;12.10;;
31368;SDS011;18004;48.416;10.066;2022-12-18T02:05:44;21.23;;;8.32;;
31368;SDS011;18004;48.416;10.066;2022-12-18T02:08:21;40.72;;;20.08;;
31368;SDS011;18004;48.416;10.066;2022-12-18T02:22:16;32.92;;;18.00;;
31368;SDS011;18004;48.416;10.066;2022-12-18T02:27:59;32.00;;;15.45;;
31368;SDS011;18004;48.416;10.066;2022-12-18T02:30:26;31.27;;;16.95;;
31368;SDS011;18004;48.416;10.066;2022-12-18T02:32:56;28.10;;;15.20;;
31368;SDS011;18004;48.416;10.066;2022-12-18T02:35:25;46.83;;;19.10;;
31368;SDS011;18004;48.416;10.066;2022-12-18T02:37:54;49.92;;;17.75;;
31368;SDS011;18004;48.416;10.066;2022-12-18T02:40:22;28.27;;;16.38;;
31368;SDS011;18004;48.416;10.066;2022-12-18T02:42:50;51.25;;;20.50;;
31368;SDS011;18004;48.416;10.066;2022-12-18T02:45:16;44.08;;;18.75;;
31368;SDS011;18004;48.416;10.066;2022-12-18T02:47:45;11.57;;;9.98;;
31368;SDS011;18004;48.416;10.066;2022-12-18T02:53:17;39.40;;;19.60;;
31368;SDS011;18004;48.416;10.066;2022-12-18T02:56:28;29.52;;;16.75;;
31368;SDS011;18004;48.416;10.066;2022-12-18T02:59:07;24.25;;;12.52;;
31368;SDS011;18004;48.416;10.066;2022-12-18T03:04:24;45.33;;;19.23;;
31368;SDS011;18004;48.416;10.066;2022-12-18T03:06:53;58.63;;;19.35;;
31368;SDS011;18004;48.416;10.066;2022-12-18T03:09:24;16.43;;;9.83;;
31368;SDS011;18004;48.416;10.066;2022-12-18T03:12:08;23.88;;;10.13;;
31368;SDS011;18004;48.416;10.066;2022-12-18T03:17:49;35.05;;;17.52;;
31368;SDS011;18004;48.416;10.066;2022-12-18T03:20:21;36.92;;;18.40;;
31368;SDS011;18004;48.416;10.066;2022-12-18T03:22:51;35.15;;;16.23;;
31368;SDS011;18004;48.416;10.066;2022-12-18T03:25:21;53.38;;;22.80;;
31368;SDS011;18004;48.416;10.066;2022-12-18T03:27:48;51.28;;;19.85;;
31368;SDS011;18004;48.416;10.066;2022-12-18T03:30:19;34.38;;;19.05;;
31368;SDS011;18004;48.416;10.066;2022-12-18T03:35:44;47.65;;;15.20;;
31368;SDS011;18004;48.416;10.066;2022-12-18T03:38:11;36.47;;;16.85;;
31368;SDS011;18004;48.416;10.066;2022-12-18T03:43:43;7.78;;;6.65;;
31368;SDS011;18004;48.416;10.066;2022-12-18T03:49:38;41.67;;;19.83;;
31368;SDS011;18004;48.416;10.066;2022-12-18T03:52:14;38.25;;;20.20;;
31368;SDS011;18004;48.416;10.066;2022-12-18T03:54:46;47.58;;;18.42;;
31368;SDS011;18004;48.416;10.066;2022-12-18T03:57:14;40.85;;;18.08;;
31368;SDS011;18004;48.416;10.066;2022-12-18T03:59:45;36.63;;;18.30;;
31368;SDS011;18004;48.416;10.066;2022-12-18T04:02:15;37.30;;;17.98;;
31368;SDS011;18004;48.416;10.066;2022-12-18T04:04:42;25.75;;;13.75;;
31368;SDS011;18004;48.416;10.066;2022-12-18T04:07:10;37.25;;;18.60;;
31368;SDS011;18004;48.416;10.066;2022-12-18T04:09:37;30.67;;;16.20;;
31368;SDS011;18004;48.416;10.066;2022-12-18T04:12:05;36.28;;;14.02;;
31368;SDS011;18004;48.416;10.066;2022-12-18T04:14:31;51.58;;;21.30;;
31368;SDS011;18004;48.416;10.066;2022-12-18T04:17:01;46.13;;;18.77;;
31368;SDS011;18004;48.416;10.066;2022-12-18T04:19:27;28.52;;;13.65;;
31368;SDS011;18004;48.416;10.066;2022-12-18T04:21:53;17.55;;;10.93;;
31368;SDS011;18004;48.416;10.066;2022-12-18T04:24:19;21.77;;;12.30;;
31368;SDS011;18004;48.416;10.066;2022-12-18T04:26:48;41.92;;;16.48;;
31368;SDS011;18004;48.416;10.066;2022-12-18T04:29:13;43.22;;;16.92;;
31368;SDS011;18004;48.416;10.066;2022-12-18T04:31:39;35.40;;;17.33;;
31368;SDS011;18004;48.416;10.066;2022-12-18T04:34:08;50.67;;;20.80;;
31368;SDS011;18004;48.416;10.066;2022-12-18T04:36:34;51.45;;;20.00;;
31368;SDS011;18004;48.416;10.066;2022-12-18T04:39:00;50.22;;;21.33;;
31368;SDS011;18004;48.416;10.066;2022-12-18T04:41:25;57.47;;;20.42;;
31368;SDS011;18004;48.416;10.066;2022-12-18T04:43:52;19.10;;;10.57;;
31368;SDS011;18004;48.416;10.066;2022-12-18T04:46:20;44.85;;;18.98;;
31368;SDS011;18004;48.416;10.066;2022-12-18T04:48:46;44.35;;;19.48;;
31368;SDS011;18004;48.416;10.066;2022-12-18T04:51:12;45.97;;;20.35;;
31368;SDS011;18004;48.416;10.066;2022-12-18T04:53:38;29.83;;;14.93;;
31368;SDS011;18004;48.416;10.066;2022-12-18T04:56:05;51.25;;;21.67;;
31368;SDS011;18004;48.416;10.066;2022-12-18T04:58:39;51.47;;;20.80;;
31368;SDS011;18004;48.416;10.066;2022-12-18T05:01:06;39.67;;;19.52;;
31368;SDS011;18004;48.416;10.066;2022-12-18T05:03:35;55.25;;;19.65;;
31368;SDS011;18004;48.416;10.066;2022-12-18T05:06:02;35.65;;;19.25;;
31368;SDS011;18004;48.416;10.066;2022-12-18T05:08:28;45.20;;;18.42;;
31368;SDS011;18004;48.416;10.066;2022-12-18T05:13:28;44.40;;;20.02;;
31368;SDS011;18004;48.416;10.066;2022-12-18T05:15:54;63.60;;;20.08;;
31368;SDS011;18004;48.416;10.066;2022-12-18T05:18:24;44.03;;;19.60;;
31368;SDS011;18004;48.416;10.066;2022-12-18T05:20:50;54.15;;;23.00;;
31368;SDS011;18004;48.416;10.066;2022-12-18T05:23:18;64.72;;;22.58;;
31368;SDS011;18004;48.416;10.066;2022-12-18T05:25:51;59.63;;;24.42;;
31368;SDS011;18004;48.416;10.066;2022-12-18T05:28:21;66.90;;;19.13;;
31368;SDS011;18004;48.416;10.066;2022-12-18T05:30:49;37.45;;;18.35;;
31368;SDS011;18004;48.416;10.066;2022-12-18T05:33:16;51.67;;;19.98;;
31368;SDS011;18004;48.416;10.066;2022-12-18T05:35:43;42.90;;;19.05;;
31368;SDS011;18004;48.416;10.066;2022-12-18T05:38:09;41.97;;;19.67;;
31368;SDS011;18004;48.416;10.066;2022-12-18T05:40:35;52.17;;;19.58;;
31368;SDS011;18004;48.416;10.066;2022-12-18T05:43:04;48.47;;;19.80;;
31368;SDS011;18004;48.416;10.066;2022-12-18T05:45:30;64.63;;;22.80;;
31368;SDS011;18004;48.416;10.066;2022-12-18T05:47:56;56.28;;;21.35;;
31368;SDS011;18004;48.416;10.066;2022-12-18T05:50:21;57.45;;;22.20;;
31368;SDS011;18004;48.416;10.066;2022-12-18T05:52:48;27.33;;;13.63;;
31368;SDS011;18004;48.416;10.066;2022-12-18T05:55:13;50.75;;;20.23;;
31368;SDS011;18004;48.416;10.066;2022-12-18T05:57:39;36.00;;;18.20;;
31368;SDS011;18004;48.416;10.066;2022-12-18T06:00:05;52.30;;;21.75;;
31368;SDS011;18004;48.416;10.066;2022-12-18T06:02:31;37.35;;;12.70;;
31368;SDS011;18004;48.416;10.066;2022-12-18T06:04:57;33.78;;;16.40;;
31368;SDS011;18004;48.416;10.066;2022-12-18T06:07:26;42.00;;;18.38;;
31368;SDS011;18004;48.416;10.066;2022-12-18T06:09:51;44.85;;;20.25;;
31368;SDS011;18004;48.416;10.066;2022-12-18T06:12:17;45.50;;;21.33;;
31368;SDS011;18004;48.416;10.066;2022-12-18T06:14:43;38.97;;;20.80;;
31368;SDS011;18004;48.416;10.066;2022-12-18T06:17:09;52.53;;;19.48;;
31368;SDS011;18004;48.416;10.066;2022-12-18T06:19:34;45.75;;;20.15;;
31368;SDS011;18004;48.416;10.066;2022-12-18T06:22:00;52.97;;;20.15;;
31368;SDS011;18004;48.416;10.066;2022-12-18T06:24:26;39.05;;;19.70;;
31368;SDS011;18004;48.416;10.066;2022-12-18T06:26:52;49.03;;;18.60;;
31368;SDS011;18004;48.416;10.066;2022-12-18T06:29:17;51.08;;;23.00;;
31368;SDS011;18004;48.416;10.066;2022-12-18T06:31:43;54.50;;;21.75;;
31368;SDS011;18004;48.416;10.066;2022-12-18T06:34:09;58.58;;;21.73;;
31368;SDS011;18004;48.416;10.066;2022-12-18T06:36:35;46.67;;;19.70;;
31368;SDS011;18004;48.416;10.066;2022-12-18T06:39:00;59.08;;;20.98;;
31368;SDS011;18004;48.416;10.066;2022-12-18T06:41:26;50.28;;;20.42;;
31368;SDS011;18004;48.416;10.066;2022-12-18T06:43:52;75.45;;;22.65;;
31368;SDS011;18004;48.416;10.066;2022-12-18T06:46:18;70.45;;;23.70;;
31368;SDS011;18004;48.416;10.066;2022-12-18T06:48:46;43.63;;;18.65;;
31368;SDS011;18004;48.416;10.066;2022-12-18T06:51:15;50.30;;;21.50;;
31368;SDS011;18004;48.416;10.066;2022-12-18T06:53:42;52.88;;;18.58;;
31368;SDS011;18004;48.416;10.066;2022-12-18T06:56:08;48.08;;;20.05;;
31368;SDS011;18004;48.416;10.066;2022-12-18T06:58:34;47.63;;;20.80;;
31368;SDS011;18004;48.416;10.066;2022-12-18T07:01:00;55.60;;;23.40;;
31368;SDS011;18004;48.416;10.066;2022-12-18T07:03:27;55.92;;;21.45;;
31368;SDS011;18004;48.416;10.066;2022-12-18T07:05:53;45.17;;;20.00;;
31368;SDS011;18004;48.416;10.066;2022-12-18T07:08:18;41.25;;;20.45;;
31368;SDS011;18004;48.416;10.066;2022-12-18T07:10:47;46.40;;;19.88;;
31368;SDS011;18004;48.416;10.066;2022-12-18T07:13:14;45.42;;;19.27;;
31368;SDS011;18004;48.416;10.066;2022-12-18T07:15:43;55.10;;;21.70;;
31368;SDS011;18004;48.416;10.066;2022-12-18T07:18:12;56.08;;;20.80;;
31368;SDS011;18004;48.416;10.066;2022-12-18T07:20:38;44.08;;;21.05;;
31368;SDS011;18004;48.416;10.066;2022-12-18T07:23:04;50.03;;;19.98;;
31368;SDS011;18004;48.416;10.066;2022-12-18T07:25:33;59.47;;;22.95;;
31368;SDS011;18004;48.416;10.066;2022-12-18T07:28:02;46.30;;;22.35;;
31368;SDS011;18004;48.416;10.066;2022-12-18T07:30:29;53.30;;;22.40;;
31368;SDS011;18004;48.416;10.066;2022-12-18T07:32:55;48.22;;;20.98;;
31368;SDS011;18004;48.416;10.066;2022-12-18T07:35:20;53.42;;;22.63;;
31368;SDS011;18004;48.416;10.066;2022-12-18T07:37:46;49.63;;;22.20;;
31368;SDS011;18004;48.416;10.066;2022-12-18T07:40:12;49.85;;;22.02;;
31368;SDS011;18004;48.416;10.066;2022-12-18T07:42:38;52.10;;;21.55;;
31368;SDS011;18004;48.416;10.066;2022-12-18T07:45:04;49.67;;;21.67;;
31368;SDS011;18004;48.416;10.066;2022-12-18T07:47:36;49.90;;;21.98;;
31368;SDS011;18004;48.416;10.066;2022-12-18T07:50:02;36.53;;;18.15;;
31368;SDS011;18004;48.416;10.066;2022-12-18T07:52:29;53.95;;;22.00;;
31368;SDS011;18004;48.416;10.066;2022-12-18T07:54:55;55.10;;;20.58;;
31368;SDS011;18004;48.416;10.066;2022-12-18T07:57:21;52.17;;;19.48;;
31368;SDS011;18004;48.416;10.066;2022-12-18T07:59:46;46.10;;;20.35;;
31368;SDS011;18004;48.416;10.066;2022-12-18T08:02:12;50.38;;;20.63;;
31368;SDS011;18004;48.416;10.066;2022-12-18T08:04:38;60.92;;;22.77;;
31368;SDS011;18004;48.416;10.066;2022-12-18T08:07:04;48.70;;;22.02;;
31368;SDS011;18004;48.416;10.066;2022-12-18T08:09:29;58.40;;;19.17;;
31368;SDS011;18004;48.416;10.066;2022-12-18T08:11:55;42.40;;;18.17;;
31368;SDS011;18004;48.416;10.066;2022-12-18T08:14:21;34.33;;;16.83;;
31368;SDS011;18004;48.416;10.066;2022-12-18T08:16:46;46.38;;;18.60;;
31368;SDS011;18004;48.416;10.066;2022-12-18T08:19:12;48.72;;;19.25;;
31368;SDS011;18004;48.416;10.066;2022-12-18T08:21:41;38.08;;;17.85;;
31368;SDS011;18004;48.416;10.066;2022-12-18T08:24:08;58.03;;;21.10;;
31368;SDS011;18004;48.416;10.066;2022-12-18T08:26:34;33.65;;;17.35;;
31368;SDS011;18004;48.416;10.066;2022-12-18T08:29:00;42.65;;;19.75;;
31368;SDS011;18004;48.416;10.066;2022-12-18T08:31:26;55.63;;;17.80;;
31368;SDS011;18004;48.416;10.066;2022-12-18T08:33:53;45.22;;;19.17;;
31368;SDS011;18004;48.416;10.066;2022-12-18T08:36:19;48.47;;;19.70;;
31368;SDS011;18004;48.416;10.066;2022-12-18T08:38:46;39.38;;;18.50;;
31368;SDS011;18004;48.416;10.066;2022-12-18T08:41:13;44.42;;;18.83;;
31368;SDS011;18004;48.416;10.066;2022-12-18T08:43:41;34.50;;;16.90;;
31368;SDS011;18004;48.416;10.066;2022-12-18T08:46:26;39.80;;;17.45;;
31368;SDS011;18004;48.416;10.066;2022-12-18T08:48:56;55.17;;;18.03;;
31368;SDS011;18004;48.416;10.066;2022-12-18T08:51:21;31.25;;;12.98;;
31368;SDS011;18004;48.416;10.066;2022-12-18T08:53:47;45.15;;;16.38;;
31368;SDS011;18004;48.416;10.066;2022-12-18T08:56:13;37.55;;;14.77;;
31368;SDS011;18004;48.416;10.066;2022-12-18T08:58:40;31.48;;;15.50;;
31368;SDS011;18004;48.416;10.066;2022-12-18T09:01:07;39.63;;;16.52;;
31368;SDS011;18004;48.416;10.066;2022-12-18T09:03:35;39.40;;;16.00;;
31368;SDS011;18004;48.416;10.066;2022-12-18T09:06:01;27.55;;;12.93;;
31368;SDS011;18004;48.416;10.066;2022-12-18T09:08:27;27.17;;;13.50;;
31368;SDS011;18004;48.416;10.066;2022-12-18T09:10:53;37.13;;;15.75;;
31368;SDS011;18004;48.416;10.066;2022-12-18T09:13:20;24.90;;;14.10;;
31368;SDS011;18004;48.416;10.066;2022-12-18T09:15:47;26.48;;;12.65;;
31368;SDS011;18004;48.416;10.066;2022-12-18T09:18:15;25.67;;;13.15;;
31368;SDS011;18004;48.416;10.066;2022-12-18T09:20:42;27.90;;;12.52;;
31368;SDS011;18004;48.416;10.066;2022-12-18T09:23:08;29.67;;;14.00;;
31368;SDS011;18004;48.416;10.066;2022-12-18T09:25:35;27.90;;;12.85;;
31368;SDS011;18004;48.416;10.066;2022-12-18T09:28:02;20.10;;;12.23;;
31368;SDS011;18004;48.416;10.066;2022-12-18T09:30:29;24.45;;;13.43;;
31368;SDS011;18004;48.416;10.066;2022-12-18T09:32:58;27.35;;;13.07;;
31368;SDS011;18004;48.416;10.066;2022-12-18T09:35:24;23.42;;;12.27;;
31368;SDS011;18004;48.416;10.066;2022-12-18T09:37:50;13.50;;;8.93;;
31368;SDS011;18004;48.416;10.066;2022-12-18T09:40:16;30.33;;;11.55;;
31368;SDS011;18004;48.416;10.066;2022-12-18T09:42:45;31.00;;;13.10;;
31368;SDS011;18004;48.416;10.066;2022-12-18T09:45:37;23.60;;;12.77;;
31368;SDS011;18004;48.416;10.066;2022-12-18T09:48:09;24.55;;;12.00;;
31368;SDS011;18004;48.416;10.066;2022-12-18T09:50:42;23.98;;;13.40;;
31368;SDS011;18004;48.416;10.066;2022-12-18T09:53:14;28.70;;;14.43;;
31368;SDS011;18004;48.416;10.066;2022-12-18T09:55:45;24.55;;;12.38;;
31368;SDS011;18004;48.416;10.066;2022-12-18T10:00:51;26.00;;;11.40;;
31368;SDS011;18004;48.416;10.066;2022-12-18T10:03:21;24.63;;;12.52;;
31368;SDS011;18004;48.416;10.066;2022-12-18T10:06:11;25.70;;;13.05;;
31368;SDS011;18004;48.416;10.066;2022-12-18T10:11:36;26.00;;;12.07;;
31368;SDS011;18004;48.416;10.066;2022-12-18T10:14:23;15.77;;;10.40;;
31368;SDS011;18004;48.416;10.066;2022-12-18T10:19:59;23.48;;;13.23;;
31368;SDS011;18004;48.416;10.066;2022-12-18T10:22:50;27.25;;;11.95;;
31368;SDS011;18004;48.416;10.066;2022-12-18T10:25:26;30.15;;;11.98;;
31368;SDS011;18004;48.416;10.066;2022-12-18T10:28:08;17.35;;;9.75;;
31368;SDS011;18004;48.416;10.066;2022-12-18T10:30:37;29.20;;;11.63;;
31368;SDS011;18004;48.416;10.066;2022-12-18T10:33:05;21.70;;;10.77;;
31368;SDS011;18004;48.416;10.066;2022-12-18T10:35:32;21.00;;;11.95;;
31368;SDS011;18004;48.416;10.066;2022-12-18T10:43:33;31.80;;;13.27;;
31368;SDS011;18004;48.416;10.066;2022-12-18T10:48:47;24.02;;;12.65;;
31368;SDS011;18004;48.416;10.066;2022-12-18T10:51:31;22.85;;;11.48;;
31368;SDS011;18004;48.416;10.066;2022-12-18T10:54:00;26.50;;;11.25;;
31368;SDS011;18004;48.416;10.066;2022-12-18T10:56:27;30.33;;;12.63;;
31368;SDS011;18004;48.416;10.066;2022-12-18T10:59:00;22.13;;;12.02;;
31368;SDS011;18004;48.416;10.066;2022-12-18T11:01:27;24.65;;;12.48;;
31368;SDS011;18004;48.416;10.066;2022-12-18T11:06:22;21.83;;;11.52;;
31368;SDS011;18004;48.416;10.066;2022-12-18T11:08:59;26.67;;;11.80;;
31368;SDS011;18004;48.416;10.066;2022-12-18T11:11:27;24.67;;;10.40;;
31368;SDS011;18004;48.416;10.066;2022-12-18T11:16:27;36.65;;;12.65;;
31368;SDS011;18004;48.416;10.066;2022-12-18T11:19:06;25.92;;;13.02;;
31368;SDS011;18004;48.416;10.066;2022-12-18T11:21:45;18.63;;;12.57;;
31368;SDS011;18004;48.416;10.066;2022-12-18T11:27:01;23.42;;;12.27;;
31368;SDS011;18004;48.416;10.066;2022-12-18T11:29:36;21.88;;;11.93;;
31368;SDS011;18004;48.416;10.066;2022-12-18T11:32:20;32.92;;;11.68;;
31368;SDS011;18004;48.416;10.066;2022-12-18T11:37:43;23.75;;;10.32;;
31368;SDS011;18004;48.416;10.066;2022-12-18T11:40:17;24.40;;;10.52;;
31368;SDS011;18004;48.416;10.066;2022-12-18T11:43:02;19.35;;;10.98;;
31368;SDS011;18004;48.416;10.066;2022-12-18T11:45:41;24.10;;;9.27;;
31368;SDS011;18004;48.416;10.066;2022-12-18T11:48:16;18.38;;;10.10;;
31368;SDS011;18004;48.416;10.066;2022-12-18T11:50:50;23.10;;;12.30;;
31368;SDS011;18004;48.416;10.066;2022-12-18T11:53:17;19.02;;;9.65;;
31368;SDS011;18004;48.416;10.066;2022-12-18T12:01:09;23.23;;;11.85;;
31368;SDS011;18004;48.416;10.066;2022-12-18T12:06:55;25.83;;;12.65;;
31368;SDS011;18004;48.416;10.066;2022-12-18T12:09:18;25.08;;;12.35;;
31368;SDS011;18004;48.416;10.066;2022-12-18T12:17:24;22.52;;;11.80;;
31368;SDS011;18004;48.416;10.066;2022-12-18T12:25:45;29.88;;;12.40;;
31368;SDS011;18004;48.416;10.066;2022-12-18T12:34:09;21.83;;;10.88;;
31368;SDS011;18004;48.416;10.066;2022-12-18T12:39:32;29.20;;;12.88;;
31368;SDS011;18004;48.416;10.066;2022-12-18T12:42:11;25.48;;;12.93;;
31368;SDS011;18004;48.416;10.066;2022-12-18T12:45:04;21.67;;;11.77;;
31368;SDS011;18004;48.416;10.066;2022-12-18T12:47:33;17.85;;;11.50;;
31368;SDS011;18004;48.416;10.066;2022-12-18T12:50:05;22.83;;;12.15;;
31368;SDS011;18004;48.416;10.066;2022-12-18T12:52:42;18.17;;;9.95;;
31368;SDS011;18004;48.416;10.066;2022-12-18T12:55:16;23.00;;;10.48;;
31368;SDS011;18004;48.416;10.066;2022-12-18T12:57:46;18.40;;;10.68;;
31368;SDS011;18004;48.416;10.066;2022-12-18T13:00:16;23.53;;;10.03;;
31368;SDS011;18004;48.416;10.066;2022-12-18T13:08:51;22.98;;;10.52;;
31368;SDS011;18004;48.416;10.066;2022-12-18T13:11:32;27.43;;;11.67;;
31368;SDS011;18004;48.416;10.066;2022-12-18T13:14:24;19.13;;;10.52;;
31368;SDS011;18004;48.416;10.066;2022-12-18T13:20:04;28.58;;;12.25;;
31368;SDS011;18004;48.416;10.066;2022-12-18T13:22:35;21.83;;;11.70;;
31368;SDS011;18004;48.416;10.066;2022-12-18T13:26:28;27.20;;;11.98;;
31368;SDS011;18004;48.416;10.066;2022-12-18T13:31:58;26.75;;;12.02;;
31368;SDS011;18004;48.416;10.066;2022-12-18T13:36:41;20.33;;;11.60;;
31368;SDS011;18004;48.416;10.066;2022-12-18T13:39:11;17.50;;;10.63;;
31368;SDS011;18004;48.416;10.066;2022-12-18T13:41:54;20.73;;;11.13;;
31368;SDS011;18004;48.416;10.066;2022-12-18T13:44:58;24.85;;;11.15;;
31368;SDS011;18004;48.416;10.066;2022-12-18T13:50:09;20.60;;;10.63;;
31368;SDS011;18004;48.416;10.066;2022-12-18T13:52:45;25.60;;;12.40;;
31368;SDS011;18004;48.416;10.066;2022-12-18T13:55:14;21.23;;;10.50;;
31368;SDS011;18004;48.416;10.066;2022-12-18T13:57:43;22.33;;;10.82;;
31368;SDS011;18004;48.416;10.066;2022-12-18T14:02:46;18.70;;;10.98;;
31368;SDS011;18004;48.416;10.066;2022-12-18T14:05:21;21.75;;;11.00;;
31368;SDS011;18004;48.416;10.066;2022-12-18T14:07:47;31.17;;;11.65;;
31368;SDS011;18004;48.416;10.066;2022-12-18T14:10:13;19.40;;;9.98;;
31368;SDS011;18004;48.416;10.066;2022-12-18T14:12:44;30.45;;;11.35;;
31368;SDS011;18004;48.416;10.066;2022-12-18T14:15:39;26.33;;;11.95;;
31368;SDS011;18004;48.416;10.066;2022-12-18T14:20:51;13.70;;;9.38;;
31368;SDS011;18004;48.416;10.066;2022-12-18T14:25:57;25.33;;;10.45;;
31368;SDS011;18004;48.416;10.066;2022-12-18T14:28:23;23.27;;;10.13;;
31368;SDS011;18004;48.416;10.066;2022-12-18T14:30:50;25.65;;;9.23;;
31368;SDS011;18004;48.416;10.066;2022-12-18T14:33:18;20.50;;;10.05;;
31368;SDS011;18004;48.416;10.066;2022-12-18T14:36:19;22.42;;;10.88;;
31368;SDS011;18004;48.416;10.066;2022-12-18T14:38:42;13.93;;;7.55;;
31368;SDS011;18004;48.416;10.066;2022-12-18T14:41:14;21.73;;;9.95;;
31368;SDS011;18004;48.416;10.066;2022-12-18T14:43:42;20.88;;;11.52;;
31368;SDS011;18004;48.416;10.066;2022-12-18T14:48:53;26.92;;;11.43;;
31368;SDS011;18004;48.416;10.066;2022-12-18T14:51:20;21.33;;;10.95;;
31368;SDS011;18004;48.416;10.066;2022-12-18T14:53:57;25.48;;;9.70;;
31368;SDS011;18004;48.416;10.066;2022-12-18T14:56:32;24.55;;;11.50;;
31368;SDS011;18004;48.416;10.066;2022-12-18T15:01:27;18.50;;;10.57;;
31368;SDS011;18004;48.416;10.066;2022-12-18T15:03:54;22.80;;;11.20;;
31368;SDS011;18004;48.416;10.066;2022-12-18T15:06:26;40.72;;;14.75;;
31368;SDS011;18004;48.416;10.066;2022-12-18T15:08:55;26.55;;;11.57;;
31368;SDS011;18004;48.416;10.066;2022-12-18T15:11:25;20.70;;;12.25;;
31368;SDS011;18004;48.416;10.066;2022-12-18T15:13:58;22.02;;;10.48;;
31368;SDS011;18004;48.416;10.066;2022-12-18T15:16:28;19.75;;;10.98;;
31368;SDS011;18004;48.416;10.066;2022-12-18T15:18:53;14.73;;;8.50;;
31368;SDS011;18004;48.416;10.066;2022-12-18T15:21:19;25.85;;;10.50;;
31368;SDS011;18004;48.416;10.066;2022-12-18T15:23:52;24.45;;;10.15;;
31368;SDS011;18004;48.416;10.066;2022-12-18T15:26:19;20.88;;;9.32;;
31368;SDS011;18004;48.416;10.066;2022-12-18T15:28:50;25.05;;;11.43;;
31368;SDS011;18004;48.416;10.066;2022-12-18T15:33:59;28.77;;;10.63;;
31368;SDS011;18004;48.416;10.066;2022-12-18T15:36:29;19.48;;;10.05;;
31368;SDS011;18004;48.416;10.066;2022-12-18T15:38:55;21.05;;;11.15;;
31368;SDS011;18004;48.416;10.066;2022-12-18T15:41:22;21.33;;;10.55;;
31368;SDS011;18004;48.416;10.066;2022-12-18T15:43:50;27.65;;;11.43;;
31368;SDS011;18004;48.416;10.066;2022-12-18T15:46:18;24.63;;;10.10;;
31368;SDS011;18004;48.416;10.066;2022-12-18T15:48:46;19.65;;;10.63;;
31368;SDS011;18004;48.416;10.066;2022-12-18T15:51:18;21.58;;;10.52;;
31368;SDS011;18004;48.416;10.066;2022-12-18T15:56:11;19.50;;;10.75;;
31368;SDS011;18004;48.416;10.066;2022-12-18T15:58:57;21.58;;;10.55;;
31368;SDS011;18004;48.416;10.066;2022-12-18T16:01:24;22.30;;;10.75;;
31368;SDS011;18004;48.416;10.066;2022-12-18T16:03:52;20.75;;;11.18;;
31368;SDS011;18004;48.416;10.066;2022-12-18T16:06:19;18.27;;;9.80;;
31368;SDS011;18004;48.416;10.066;2022-12-18T16:08:45;21.60;;;10.13;;
31368;SDS011;18004;48.416;10.066;2022-12-18T16:11:27;19.35;;;10.18;;
31368;SDS011;18004;48.416;10.066;2022-12-18T16:16:32;20.33;;;9.48;;
31368;SDS011;18004;48.416;10.066;2022-12-18T16:18:58;19.48;;;9.65;;
31368;SDS011;18004;48.416;10.066;2022-12-18T16:21:24;24.02;;;11.77;;
31368;SDS011;18004;48.416;10.066;2022-12-18T16:23:49;13.18;;;8.52;;
31368;SDS011;18004;48.416;10.066;2022-12-18T16:26:16;24.77;;;9.60;;
31368;SDS011;18004;48.416;10.066;2022-12-18T16:28:41;23.15;;;9.82;;
31368;SDS011;18004;48.416;10.066;2022-12-18T16:31:07;15.13;;;9.23;;
31368;SDS011;18004;48.416;10.066;2022-12-18T16:33:33;17.38;;;9.98;;
31368;SDS011;18004;48.416;10.066;2022-12-18T16:35:59;25.30;;;9.70;;
31368;SDS011;18004;48.416;10.066;2022-12-18T16:38:24;23.45;;;10.68;;
31368;SDS011;18004;48.416;10.066;2022-12-18T16:40:50;23.70;;;10.77;;